Time;durP1;ratioP1;P1;durP2;ratioP2;P2;SDS_P1;SDS_P2;PMS_P1;PMS_P2;Temp;Humidity;BMP_temperature;BMP_pressure;BME280_temperature;BME280_humidity;BME280_pressure;Samples;Min_cycle;Max_cycle;Signal;HPM_P1;HPM_P2
2023/07/01 00:01:22;;;;;;;;;;;17.70;99.90;;;;;;5078304;28;19909;-54
2023/07/01 00:03:48;;;;;;;;;;;17.70;99.90;;;;;;5077354;28;19916;-53
2023/07/01 00:06:14;;;;;;;;;;;17.70;99.90;;;;;;5094319;28;19908;-52
2023/07/01 00:08:40;;;;;;;;;;;17.70;99.90;;;;;;5098436;28;19908;-51
2023/07/01 00:11:06;;;;;;;;;;;17.70;99.90;;;;;;5097740;28;19908;-53
2023/07/01 00:13:32;;;;;;;;;;;17.70;99.90;;;;;;5097958;28;19944;-54
2023/07/01 00:15:58;;;;;;;;;;;17.70;99.90;;;;;;5097682;28;19912;-53
2023/07/01 00:18:24;;;;;;;;;;;17.70;99.90;;;;;;5097857;28;19909;-52
2023/07/01 00:20:50;;;;;;;;;;;17.70;99.90;;;;;;5098103;28;20330;-54
2023/07/01 00:23:15;;;;;;;;;;;17.70;99.90;;;;;;5098042;28;20304;-54
2023/07/01 00:25:41;;;;;;;;;;;17.70;99.90;;;;;;5098273;28;20430;-62
2023/07/01 00:28:06;;;;;;;;;;;17.70;99.90;;;;;;5097801;28;20330;-62
2023/07/01 00:30:32;;;;;;;;;;;17.70;99.90;;;;;;5097959;28;19930;-62
2023/07/01 00:32:58;;;;;;;;;;;17.70;99.90;;;;;;5097868;28;19920;-62
2023/07/01 00:35:23;;;;;;;;;;;17.70;99.90;;;;;;5097848;28;19908;-62
2023/07/01 00:37:49;;;;;;;;;;;17.70;99.90;;;;;;5098176;28;19915;-62
2023/07/01 00:40:14;;;;;;;;;;;17.70;99.90;;;;;;5097538;28;20290;-62
2023/07/01 00:42:40;;;;;;;;;;;17.60;99.90;;;;;;5081412;28;19962;-62
2023/07/01 00:45:06;;;;;;;;;;;17.70;99.90;;;;;;5077634;28;19917;-62
2023/07/01 00:47:32;;;;;;;;;;;17.70;99.90;;;;;;5078225;28;19915;-62
2023/07/01 00:49:57;;;;;;;;;;;17.60;99.90;;;;;;5077423;28;19999;-62
2023/07/01 00:52:23;;;;;;;;;;;17.60;99.90;;;;;;5077531;28;19935;-62
2023/07/01 00:54:49;;;;;;;;;;;17.60;99.90;;;;;;5077503;28;19908;-62
2023/07/01 00:57:14;;;;;;;;;;;17.60;99.90;;;;;;5077317;28;19909;-62
2023/07/01 00:59:40;;;;;;;;;;;17.60;99.90;;;;;;5077667;28;20387;-62
2023/07/01 01:02:10;;;;;;;;;;;17.60;99.90;;;;;;5077401;28;20320;-62
2023/07/01 01:04:44;;;;;;;;;;;17.60;99.90;;;;;;5077320;28;19995;-62
2023/07/01 01:07:19;;;;;;;;;;;17.60;99.90;;;;;;5077027;28;19970;-62
2023/07/01 01:09:51;;;;;;;;;;;17.60;99.90;;;;;;5077487;28;19909;-62
2023/07/01 01:12:18;;;;;;;;;;;17.60;99.90;;;;;;5077343;28;19948;-62
2023/07/01 01:14:44;;;;;;;;;;;17.60;99.90;;;;;;5077100;28;19983;-62
2023/07/01 01:17:12;;;;;;;;;;;17.60;99.90;;;;;;5080382;28;19948;-62
2023/07/01 01:19:46;;;;;;;;;;;17.60;99.90;;;;;;5081182;28;20003;-62
2023/07/01 01:22:14;;;;;;;;;;;17.60;99.90;;;;;;5080728;28;19908;-62
2023/07/01 01:24:41;;;;;;;;;;;17.60;99.90;;;;;;5080865;28;20387;-62
2023/07/01 01:27:08;;;;;;;;;;;17.60;99.90;;;;;;5080992;28;20456;-62
2023/07/01 01:29:34;;;;;;;;;;;17.60;99.90;;;;;;5080952;28;19990;-62
2023/07/01 01:31:59;;;;;;;;;;;17.60;99.90;;;;;;5080595;28;19909;-62
2023/07/01 01:34:26;;;;;;;;;;;17.60;99.90;;;;;;5080702;28;19915;-62
2023/07/01 01:36:53;;;;;;;;;;;17.60;99.90;;;;;;5080254;28;19912;-62
2023/07/01 01:39:21;;;;;;;;;;;17.60;99.90;;;;;;5080313;28;19919;-62
2023/07/01 01:41:51;;;;;;;;;;;17.60;99.90;;;;;;5088742;28;20403;-62
2023/07/01 01:44:22;;;;;;;;;;;17.60;99.90;;;;;;5100784;28;19908;-62
2023/07/01 01:46:51;;;;;;;;;;;17.60;99.90;;;;;;5100429;28;19915;-62
2023/07/01 01:49:16;;;;;;;;;;;17.60;99.90;;;;;;5100744;28;19912;-62
2023/07/01 01:51:42;;;;;;;;;;;17.60;99.90;;;;;;5100416;28;19946;-62
2023/07/01 01:54:09;;;;;;;;;;;17.60;99.90;;;;;;5100513;28;19912;-62
2023/07/01 01:56:36;;;;;;;;;;;17.60;99.90;;;;;;5100305;28;20286;-62
2023/07/01 01:59:02;;;;;;;;;;;17.60;99.90;;;;;;5100281;28;19908;-62
2023/07/01 02:01:27;;;;;;;;;;;17.60;99.90;;;;;;5098980;28;19912;-62
2023/07/01 02:03:53;;;;;;;;;;;17.60;99.90;;;;;;5099133;28;19908;-62
2023/07/01 02:06:19;;;;;;;;;;;17.50;99.90;;;;;;5079780;28;19916;-62
2023/07/01 02:08:44;;;;;;;;;;;17.50;99.90;;;;;;5095783;28;20283;-62
2023/07/01 02:11:10;;;;;;;;;;;17.50;99.90;;;;;;5099518;28;19948;-62
2023/07/01 02:13:36;;;;;;;;;;;17.50;99.90;;;;;;5099971;28;19951;-62
2023/07/01 02:16:01;;;;;;;;;;;17.50;99.90;;;;;;5086535;28;19912;-62
2023/07/01 02:18:27;;;;;;;;;;;17.50;99.90;;;;;;5100401;28;19908;-62
2023/07/01 02:20:52;;;;;;;;;;;17.50;99.90;;;;;;5090925;28;19912;-62
2023/07/01 02:23:18;;;;;;;;;;;17.50;99.90;;;;;;5079754;28;19912;-62
2023/07/01 02:25:44;;;;;;;;;;;17.50;99.90;;;;;;5079383;28;19908;-62
2023/07/01 02:28:09;;;;;;;;;;;17.50;99.90;;;;;;5079083;28;19909;-62
2023/07/01 02:30:35;;;;;;;;;;;17.50;99.90;;;;;;5079571;28;19915;-62
2023/07/01 02:33:01;;;;;;;;;;;17.50;99.90;;;;;;5087888;28;19919;-62
2023/07/01 02:35:27;;;;;;;;;;;17.50;99.90;;;;;;5099518;28;19912;-62
2023/07/01 02:37:52;;;;;;;;;;;17.50;99.90;;;;;;5099667;28;20394;-62
2023/07/01 02:40:18;;;;;;;;;;;17.50;99.90;;;;;;5099366;28;19977;-62
2023/07/01 02:42:43;;;;;;;;;;;17.50;99.90;;;;;;5099817;28;19908;-62
2023/07/01 02:45:09;;;;;;;;;;;17.50;99.90;;;;;;5099377;28;19915;-62
2023/07/01 02:47:35;;;;;;;;;;;17.50;99.90;;;;;;5099339;28;19908;-62
2023/07/01 02:50:00;;;;;;;;;;;17.50;99.90;;;;;;5099554;28;19908;-62
2023/07/01 02:52:26;;;;;;;;;;;17.50;99.90;;;;;;5099473;28;20386;-62
2023/07/01 02:54:52;;;;;;;;;;;17.50;99.90;;;;;;5099237;28;20264;-62
2023/07/01 02:57:17;;;;;;;;;;;17.50;99.90;;;;;;5097787;28;20367;-62
2023/07/01 02:59:43;;;;;;;;;;;17.50;99.90;;;;;;5099537;28;19912;-62
2023/07/01 03:02:09;;;;;;;;;;;17.50;99.90;;;;;;5099366;28;19944;-62
2023/07/01 03:04:35;;;;;;;;;;;17.40;99.90;;;;;;5099034;28;20287;-62
2023/07/01 03:07:00;;;;;;;;;;;17.40;99.90;;;;;;5099271;28;19908;-61
2023/07/01 03:09:27;;;;;;;;;;;17.40;99.90;;;;;;5091120;28;19912;-62
2023/07/01 03:11:53;;;;;;;;;;;17.40;99.90;;;;;;5078640;28;19915;-62
2023/07/01 03:14:19;;;;;;;;;;;17.30;99.90;;;;;;5078579;28;19912;-62
2023/07/01 03:16:44;;;;;;;;;;;17.30;99.90;;;;;;5082347;28;19953;-62
2023/07/01 03:19:10;;;;;;;;;;;17.30;99.90;;;;;;5078485;28;20350;-61
2023/07/01 03:21:36;;;;;;;;;;;17.30;99.90;;;;;;5078470;28;19909;-62
2023/07/01 03:24:02;;;;;;;;;;;17.30;99.90;;;;;;5097521;28;19959;-61
2023/07/01 03:26:28;;;;;;;;;;;17.20;99.90;;;;;;5098215;28;20395;-62
2023/07/01 03:28:53;;;;;;;;;;;17.20;99.90;;;;;;5097747;28;19965;-62
2023/07/01 03:31:19;;;;;;;;;;;17.20;99.90;;;;;;5086845;28;19912;-62
2023/07/01 03:33:45;;;;;;;;;;;17.20;99.90;;;;;;5094322;28;20377;-62
2023/07/01 03:36:11;;;;;;;;;;;17.20;99.90;;;;;;5078473;28;19935;-62
2023/07/01 03:38:36;;;;;;;;;;;17.20;99.90;;;;;;5077625;28;19951;-62
2023/07/01 03:41:02;;;;;;;;;;;17.20;99.90;;;;;;5079972;28;19921;-61
2023/07/01 03:43:28;;;;;;;;;;;17.20;99.90;;;;;;5088204;28;19909;-62
2023/07/01 03:45:54;;;;;;;;;;;17.20;99.90;;;;;;5078151;28;19916;-62
2023/07/01 03:48:19;;;;;;;;;;;17.20;99.90;;;;;;5094742;28;19957;-61
2023/07/01 03:50:45;;;;;;;;;;;17.10;99.90;;;;;;5098360;28;19912;-61
2023/07/01 03:53:11;;;;;;;;;;;17.10;99.90;;;;;;5098399;28;20314;-61
2023/07/01 03:55:36;;;;;;;;;;;17.10;99.90;;;;;;5098144;28;19919;-62
2023/07/01 03:58:02;;;;;;;;;;;17.00;99.90;;;;;;5098276;28;19915;-62
2023/07/01 04:00:28;;;;;;;;;;;17.00;99.90;;;;;;5081220;28;19909;-61
2023/07/01 04:02:54;;;;;;;;;;;17.00;99.90;;;;;;5078148;28;19912;-62
2023/07/01 04:05:19;;;;;;;;;;;17.00;99.90;;;;;;5078066;28;20359;-61
2023/07/01 04:07:46;;;;;;;;;;;17.00;99.90;;;;;;5078257;28;20374;-62
2023/07/01 04:10:13;;;;;;;;;;;17.00;99.90;;;;;;5078007;28;19912;-62
2023/07/01 04:12:39;;;;;;;;;;;17.00;99.90;;;;;;5076767;28;19912;-62
2023/07/01 04:15:11;;;;;;;;;;;16.90;99.90;;;;;;5076460;28;19912;-61
2023/07/01 04:17:39;;;;;;;;;;;16.90;99.90;;;;;;5078006;28;20279;-62
2023/07/01 04:20:06;;;;;;;;;;;17.00;99.90;;;;;;5077665;28;19972;-62
2023/07/01 04:22:31;;;;;;;;;;;16.90;99.90;;;;;;5077550;28;19995;-62
2023/07/01 04:24:57;;;;;;;;;;;16.90;99.90;;;;;;5077638;28;20020;-62
2023/07/01 04:27:23;;;;;;;;;;;16.90;99.90;;;;;;5077802;28;20021;-62
2023/07/01 04:29:48;;;;;;;;;;;17.00;99.90;;;;;;5077852;28;19909;-62
2023/07/01 04:32:14;;;;;;;;;;;16.90;99.90;;;;;;5077801;28;20338;-62
2023/07/01 04:34:39;;;;;;;;;;;16.90;99.90;;;;;;5077492;28;19908;-62
2023/07/01 04:37:05;;;;;;;;;;;16.90;99.90;;;;;;5094766;28;19954;-62
2023/07/01 04:39:30;;;;;;;;;;;16.90;99.90;;;;;;5098101;28;20282;-61
2023/07/01 04:41:56;;;;;;;;;;;16.90;99.90;;;;;;5097562;28;19924;-62
2023/07/01 04:44:24;;;;;;;;;;;16.90;99.90;;;;;;5096864;28;19915;-62
2023/07/01 04:46:50;;;;;;;;;;;16.90;99.90;;;;;;5082452;28;19920;-62
2023/07/01 04:49:16;;;;;;;;;;;17.00;99.90;;;;;;5088228;28;19912;-62
2023/07/01 04:51:42;;;;;;;;;;;16.90;99.90;;;;;;5100846;28;19908;-62
2023/07/01 04:54:07;;;;;;;;;;;16.90;99.90;;;;;;5099640;28;19916;-61
2023/07/01 04:56:33;;;;;;;;;;;16.90;99.90;;;;;;5100016;28;19980;-62
2023/07/01 04:59:00;;;;;;;;;;;16.90;99.90;;;;;;5081262;28;19915;-62
2023/07/01 05:01:26;;;;;;;;;;;17.00;99.90;;;;;;5080943;28;19912;-62
2023/07/01 05:03:52;;;;;;;;;;;17.00;99.90;;;;;;5081002;28;19909;-62
2023/07/01 05:06:17;;;;;;;;;;;17.00;99.90;;;;;;5093262;28;20324;-62
2023/07/01 05:08:43;;;;;;;;;;;17.00;99.90;;;;;;5080929;28;19916;-62
2023/07/01 05:11:08;;;;;;;;;;;17.00;99.90;;;;;;5088443;28;19916;-62
2023/07/01 05:13:34;;;;;;;;;;;17.00;99.90;;;;;;5101087;28;19934;-62
2023/07/01 05:16:00;;;;;;;;;;;17.00;99.90;;;;;;5101329;28;19908;-62
2023/07/01 05:18:25;;;;;;;;;;;17.00;99.90;;;;;;5101517;28;19908;-62
2023/07/01 05:20:51;;;;;;;;;;;17.00;99.90;;;;;;5101091;28;19958;-62
2023/07/01 05:23:17;;;;;;;;;;;17.00;99.90;;;;;;5093879;28;19915;-62
2023/07/01 05:25:42;;;;;;;;;;;17.00;99.90;;;;;;5081165;28;19909;-62
2023/07/01 05:28:08;;;;;;;;;;;17.00;99.90;;;;;;5096561;28;19912;-62
2023/07/01 05:30:34;;;;;;;;;;;17.10;99.90;;;;;;5101193;28;20334;-62
2023/07/01 05:32:59;;;;;;;;;;;17.10;99.90;;;;;;5092892;28;19960;-62
2023/07/01 05:35:25;;;;;;;;;;;17.10;99.90;;;;;;5085709;28;20437;-62
2023/07/01 05:37:52;;;;;;;;;;;17.10;99.90;;;;;;5100796;28;20293;-62
2023/07/01 05:40:18;;;;;;;;;;;17.10;99.90;;;;;;5098786;28;19962;-62
2023/07/01 05:42:45;;;;;;;;;;;17.10;99.90;;;;;;5098408;28;19916;-62
2023/07/01 05:45:11;;;;;;;;;;;17.10;99.90;;;;;;5100678;28;19994;-62
2023/07/01 05:47:37;;;;;;;;;;;17.20;99.90;;;;;;5091003;28;19924;-62
2023/07/01 05:50:03;;;;;;;;;;;17.20;99.90;;;;;;5080542;28;19908;-62
2023/07/01 05:52:28;;;;;;;;;;;17.20;99.90;;;;;;5084192;28;20000;-62
2023/07/01 05:54:54;;;;;;;;;;;17.20;99.90;;;;;;5094996;28;20029;-62
2023/07/01 05:57:19;;;;;;;;;;;17.30;99.90;;;;;;5085919;28;19948;-62
2023/07/01 05:59:45;;;;;;;;;;;17.30;99.90;;;;;;5093476;28;20002;-62
2023/07/01 06:02:10;;;;;;;;;;;17.30;99.90;;;;;;5097525;28;19915;-62
2023/07/01 06:04:36;;;;;;;;;;;17.30;99.90;;;;;;5098105;28;19962;-62
2023/07/01 06:07:02;;;;;;;;;;;17.30;99.90;;;;;;5100137;28;20286;-62
2023/07/01 06:09:27;;;;;;;;;;;17.40;99.90;;;;;;5100278;28;19908;-62
2023/07/01 06:11:53;;;;;;;;;;;17.40;99.90;;;;;;5085603;28;19920;-62
2023/07/01 06:14:18;;;;;;;;;;;17.40;99.90;;;;;;5079650;28;19927;-62
2023/07/01 06:16:44;;;;;;;;;;;17.40;99.90;;;;;;5080022;28;20371;-62
2023/07/01 06:19:10;;;;;;;;;;;17.40;99.90;;;;;;5083708;28;19913;-62
2023/07/01 06:21:35;;;;;;;;;;;17.40;99.90;;;;;;5099703;28;19912;-62
2023/07/01 06:24:01;;;;;;;;;;;17.40;99.90;;;;;;5098549;28;20291;-62
2023/07/01 06:26:27;;;;;;;;;;;17.40;99.90;;;;;;5092861;28;20305;-62
2023/07/01 06:28:52;;;;;;;;;;;17.40;99.90;;;;;;5083461;28;19912;-62
2023/07/01 06:31:18;;;;;;;;;;;17.40;99.90;;;;;;5099657;28;19915;-62
2023/07/01 06:33:44;;;;;;;;;;;17.40;99.90;;;;;;5097777;28;19923;-62
2023/07/01 06:36:10;;;;;;;;;;;17.40;99.90;;;;;;5084837;28;19919;-62
2023/07/01 06:38:36;;;;;;;;;;;17.40;99.90;;;;;;5079007;28;19975;-62
2023/07/01 06:41:01;;;;;;;;;;;17.50;99.90;;;;;;5079154;28;20006;-62
2023/07/01 06:43:27;;;;;;;;;;;17.50;99.90;;;;;;5094185;28;19923;-62
2023/07/01 06:45:54;;;;;;;;;;;17.60;99.90;;;;;;5079636;28;19954;-62
2023/07/01 06:48:20;;;;;;;;;;;17.70;99.90;;;;;;5081199;28;19927;-62
2023/07/01 06:50:46;;;;;;;;;;;17.70;99.90;;;;;;5096387;28;19912;-62
2023/07/01 06:53:11;;;;;;;;;;;17.80;99.90;;;;;;5078476;28;19920;-62
2023/07/01 06:55:37;;;;;;;;;;;17.90;99.90;;;;;;5079031;28;19914;-62
2023/07/01 06:58:02;;;;;;;;;;;17.90;99.90;;;;;;5078860;28;19913;-62
2023/07/01 07:00:29;;;;;;;;;;;18.00;99.90;;;;;;5078615;28;20348;-62
2023/07/01 07:02:55;;;;;;;;;;;18.00;99.90;;;;;;5077570;28;20324;-62
2023/07/01 07:05:20;;;;;;;;;;;18.00;99.90;;;;;;5077499;28;20291;-62
2023/07/01 07:07:46;;;;;;;;;;;18.00;99.90;;;;;;5078661;28;19931;-62
2023/07/01 07:10:12;;;;;;;;;;;18.10;99.90;;;;;;5078880;28;19915;-62
2023/07/01 07:12:37;;;;;;;;;;;18.20;99.90;;;;;;5078705;28;19916;-62
2023/07/01 07:15:03;;;;;;;;;;;18.30;99.90;;;;;;5078476;28;19912;-62
2023/07/01 07:17:29;;;;;;;;;;;18.40;99.90;;;;;;5078783;28;19908;-62
2023/07/01 07:19:55;;;;;;;;;;;18.50;99.90;;;;;;5079036;28;20402;-62
2023/07/01 07:22:21;;;;;;;;;;;18.50;99.90;;;;;;5078012;28;19915;-62
2023/07/01 07:24:46;;;;;;;;;;;18.50;99.90;;;;;;5078889;28;19915;-62
2023/07/01 07:27:12;;;;;;;;;;;18.60;99.90;;;;;;5078431;28;19943;-62
2023/07/01 07:29:39;;;;;;;;;;;18.60;99.90;;;;;;5078354;28;19915;-62
2023/07/01 07:32:05;;;;;;;;;;;18.70;99.90;;;;;;5078249;28;19938;-62
2023/07/01 07:34:30;;;;;;;;;;;18.60;99.90;;;;;;5078271;28;19915;-61
2023/07/01 07:36:56;;;;;;;;;;;18.70;99.90;;;;;;5078742;28;19908;-62
2023/07/01 07:39:22;;;;;;;;;;;18.80;99.90;;;;;;5078165;28;19908;-62
2023/07/01 07:41:49;;;;;;;;;;;18.70;99.90;;;;;;5077877;28;19927;-62
2023/07/01 07:44:15;;;;;;;;;;;18.90;99.90;;;;;;5078247;28;19908;-62
2023/07/01 07:46:42;;;;;;;;;;;19.00;99.90;;;;;;5078223;28;20287;-61
2023/07/01 07:49:08;;;;;;;;;;;19.00;99.90;;;;;;5078175;28;19912;-62
2023/07/01 07:51:33;;;;;;;;;;;19.00;99.90;;;;;;5078519;28;20348;-62
2023/07/01 07:53:59;;;;;;;;;;;18.80;99.90;;;;;;5077916;28;20302;-61
2023/07/01 07:56:24;;;;;;;;;;;18.80;99.90;;;;;;5078165;28;19909;-61
2023/07/01 07:58:50;;;;;;;;;;;18.80;99.90;;;;;;5078155;28;19909;-62
2023/07/01 08:01:16;;;;;;;;;;;18.80;99.90;;;;;;5077992;28;20355;-62
2023/07/01 08:03:41;;;;;;;;;;;18.80;99.90;;;;;;5078365;28;19927;-61
2023/07/01 08:06:07;;;;;;;;;;;18.80;99.90;;;;;;5077946;28;20042;-61
2023/07/01 08:08:33;;;;;;;;;;;18.80;99.90;;;;;;5077849;28;20260;-62
2023/07/01 08:10:59;;;;;;;;;;;18.90;99.90;;;;;;5077987;28;19908;-61
2023/07/01 08:13:25;;;;;;;;;;;19.10;99.90;;;;;;5077738;28;19959;-62
2023/07/01 08:15:50;;;;;;;;;;;19.20;99.90;;;;;;5077528;28;19908;-61
2023/07/01 08:18:16;;;;;;;;;;;19.10;99.90;;;;;;5077904;28;19931;-62
2023/07/01 08:20:45;;;;;;;;;;;19.10;99.90;;;;;;5078115;28;19908;-61
2023/07/01 08:23:11;;;;;;;;;;;19.10;99.90;;;;;;5077621;28;19915;-62
2023/07/01 08:25:40;;;;;;;;;;;19.20;99.90;;;;;;5079135;28;19948;-61
2023/07/01 08:28:06;;;;;;;;;;;19.30;99.90;;;;;;5082072;28;19909;-61
2023/07/01 08:30:31;;;;;;;;;;;19.30;99.90;;;;;;5082051;28;19915;-61
2023/07/01 08:32:57;;;;;;;;;;;19.30;99.90;;;;;;5081946;28;20805;-61
2023/07/01 08:35:23;;;;;;;;;;;19.20;99.90;;;;;;5081930;28;19977;-61
2023/07/01 08:37:48;;;;;;;;;;;19.40;99.90;;;;;;5081637;28;19909;-61
2023/07/01 08:40:14;;;;;;;;;;;19.40;99.90;;;;;;5081199;28;19916;-61
2023/07/01 08:42:43;;;;;;;;;;;19.50;99.90;;;;;;5081907;28;19916;-62
2023/07/01 08:45:10;;;;;;;;;;;19.50;99.90;;;;;;5081661;28;19916;-62
2023/07/01 08:47:36;;;;;;;;;;;19.60;99.90;;;;;;5081647;28;19909;-62
2023/07/01 08:50:05;;;;;;;;;;;19.70;99.90;;;;;;5081409;28;19915;-62
2023/07/01 08:52:36;;;;;;;;;;;19.70;99.90;;;;;;5081041;28;19960;-62
2023/07/01 08:55:01;;;;;;;;;;;19.80;99.90;;;;;;5081569;28;19962;-62
2023/07/01 08:57:27;;;;;;;;;;;19.80;99.90;;;;;;5081427;28;19913;-62
2023/07/01 08:59:53;;;;;;;;;;;19.80;99.90;;;;;;5081651;28;20367;-62
2023/07/01 09:02:20;;;;;;;;;;;19.80;99.90;;;;;;5081243;28;19962;-62
2023/07/01 09:04:46;;;;;;;;;;;19.80;99.90;;;;;;5081340;28;19908;-62
2023/07/01 09:07:11;;;;;;;;;;;19.70;99.90;;;;;;5081135;28;19916;-62
2023/07/01 09:09:38;;;;;;;;;;;19.60;99.90;;;;;;5081225;28;19972;-62
2023/07/01 09:12:04;;;;;;;;;;;19.60;99.90;;;;;;5079613;28;19980;-62
2023/07/01 09:14:49;;;;;;;;;;;19.80;99.90;;;;;;5081005;28;19958;-62
2023/07/01 09:17:31;;;;;;;;;;;19.90;99.90;;;;;;5080877;28;20364;-62
2023/07/01 09:20:01;;;;;;;;;;;20.10;99.90;;;;;;5080637;28;20383;-62
2023/07/01 09:22:27;;;;;;;;;;;20.40;99.90;;;;;;5080745;28;19909;-62
2023/07/01 09:24:53;;;;;;;;;;;20.50;99.90;;;;;;5080513;28;19931;-62
2023/07/01 09:27:19;;;;;;;;;;;20.60;99.90;;;;;;5080989;28;19912;-62
2023/07/01 09:29:45;;;;;;;;;;;20.70;99.90;;;;;;5091126;28;19999;-62
2023/07/01 09:32:10;;;;;;;;;;;20.70;99.90;;;;;;5100703;28;19977;-62
2023/07/01 09:34:58;;;;;;;;;;;20.70;99.90;;;;;;5101122;28;20371;-62
2023/07/01 09:37:26;;;;;;;;;;;20.80;99.90;;;;;;5100911;28;19908;-62
2023/07/01 09:39:52;;;;;;;;;;;20.90;99.90;;;;;;5100800;28;19908;-62
2023/07/01 09:42:18;;;;;;;;;;;20.90;99.90;;;;;;5100360;28;19926;-62
2023/07/01 09:45:02;;;;;;;;;;;21.00;99.90;;;;;;5100736;28;19915;-62
2023/07/01 09:47:30;;;;;;;;;;;21.30;99.90;;;;;;5098512;28;20211;-62
2023/07/01 09:49:56;;;;;;;;;;;21.40;99.90;;;;;;5099576;28;19915;-62
2023/07/01 09:52:31;;;;;;;;;;;21.70;99.90;;;;;;5100558;28;19915;-62
2023/07/01 09:54:58;;;;;;;;;;;21.90;99.90;;;;;;5100689;28;20264;-62
2023/07/01 09:57:24;;;;;;;;;;;22.00;99.90;;;;;;5100299;28;19915;-62
2023/07/01 09:59:49;;;;;;;;;;;21.90;99.90;;;;;;5100380;28;19908;-62
2023/07/01 10:02:15;;;;;;;;;;;21.60;99.90;;;;;;5100297;28;20395;-62
2023/07/01 10:04:41;;;;;;;;;;;21.50;99.90;;;;;;5100522;28;20252;-62
2023/07/01 10:07:07;;;;;;;;;;;21.30;99.90;;;;;;5100148;28;19908;-62
2023/07/01 10:09:32;;;;;;;;;;;21.30;99.90;;;;;;5100290;28;19951;-62
2023/07/01 10:11:59;;;;;;;;;;;21.10;99.90;;;;;;5099409;28;19912;-62
2023/07/01 10:14:26;;;;;;;;;;;21.00;99.90;;;;;;5100013;28;19966;-62
2023/07/01 10:16:51;;;;;;;;;;;21.10;99.90;;;;;;5099883;28;20010;-62
2023/07/01 10:19:34;;;;;;;;;;;21.10;99.90;;;;;;5100219;28;19947;-62
2023/07/01 10:22:18;;;;;;;;;;;21.10;99.90;;;;;;5099777;28;20279;-62
2023/07/01 10:24:44;;;;;;;;;;;21.20;99.90;;;;;;5100260;28;19916;-62
2023/07/01 10:27:10;;;;;;;;;;;21.30;99.90;;;;;;5099676;28;19908;-62
2023/07/01 10:29:36;;;;;;;;;;;21.40;99.90;;;;;;5099842;28;19930;-62
2023/07/01 10:32:08;;;;;;;;;;;21.30;99.90;;;;;;5099839;28;19948;-62
2023/07/01 10:34:52;;;;;;;;;;;21.20;99.90;;;;;;5099816;28;20403;-62
2023/07/01 10:37:18;;;;;;;;;;;21.00;99.90;;;;;;5099565;28;19950;-62
2023/07/01 10:39:44;;;;;;;;;;;21.10;99.90;;;;;;5099742;28;19930;-62
2023/07/01 10:42:24;;;;;;;;;;;21.40;99.90;;;;;;5099377;28;19920;-62
2023/07/01 10:44:50;;;;;;;;;;;21.40;99.90;;;;;;5099206;28;19918;-62
2023/07/01 10:47:16;;;;;;;;;;;21.40;99.90;;;;;;5099440;28;20382;-62
2023/07/01 10:50:00;;;;;;;;;;;21.40;99.90;;;;;;5098860;28;20407;-62
2023/07/01 10:52:26;;;;;;;;;;;21.30;99.90;;;;;;5099217;28;19937;-62
2023/07/01 10:54:52;;;;;;;;;;;21.10;99.90;;;;;;5099442;28;19975;-62
2023/07/01 10:57:18;;;;;;;;;;;21.00;99.90;;;;;;5099580;28;19919;-62
2023/07/01 10:59:44;;;;;;;;;;;21.00;99.90;;;;;;5099081;28;19945;-62
2023/07/01 11:02:10;;;;;;;;;;;20.90;99.90;;;;;;5097705;28;19908;-62
2023/07/01 11:04:55;;;;;;;;;;;20.90;99.90;;;;;;5099238;28;19908;-62
2023/07/01 11:07:24;;;;;;;;;;;20.90;99.90;;;;;;5099099;28;19951;-62
2023/07/01 11:09:50;;;;;;;;;;;21.00;99.90;;;;;;5098888;28;20385;-62
2023/07/01 11:12:15;;;;;;;;;;;20.90;99.90;;;;;;5099002;28;19908;-62
2023/07/01 11:14:41;;;;;;;;;;;21.20;99.90;;;;;;5098834;28;19915;-62
2023/07/01 11:17:07;;;;;;;;;;;21.50;99.90;;;;;;5099295;28;19915;-62
2023/07/01 11:19:33;;;;;;;;;;;21.50;99.90;;;;;;5097403;28;19908;-62
2023/07/01 11:21:59;;;;;;;;;;;21.50;99.90;;;;;;5098520;28;19999;-62
2023/07/01 11:24:26;;;;;;;;;;;21.30;99.90;;;;;;5098633;28;19925;-62
2023/07/01 11:26:58;;;;;;;;;;;21.20;99.90;;;;;;5098642;28;19914;-62
2023/07/01 11:29:24;;;;;;;;;;;21.00;99.90;;;;;;5098212;28;19908;-62
2023/07/01 11:32:17;;;;;;;;;;;21.00;99.90;;;;;;5098692;28;19915;-62
2023/07/01 11:34:46;;;;;;;;;;;20.80;99.90;;;;;;5094299;28;19912;-62
2023/07/01 11:37:22;;;;;;;;;;;20.70;99.90;;;;;;5098306;28;19908;-62
2023/07/01 11:39:48;;;;;;;;;;;20.90;99.90;;;;;;5098084;28;19909;-62
2023/07/01 11:42:14;;;;;;;;;;;21.20;99.90;;;;;;5097978;28;20287;-62
2023/07/01 11:44:39;;;;;;;;;;;21.70;99.90;;;;;;5098526;28;19915;-62
2023/07/01 11:47:11;;;;;;;;;;;21.90;99.90;;;;;;5098243;28;19908;-62
2023/07/01 11:49:37;;;;;;;;;;;22.00;99.90;;;;;;5098031;28;19918;-62
2023/07/01 11:52:04;;;;;;;;;;;22.00;99.90;;;;;;5098400;28;20366;-62
2023/07/01 11:54:39;;;;;;;;;;;22.10;99.90;;;;;;5098326;28;19919;-62
2023/07/01 11:57:12;;;;;;;;;;;22.30;99.90;;;;;;5098510;28;20426;-62
2023/07/01 11:59:40;;;;;;;;;;;22.50;99.90;;;;;;5097546;28;19936;-63
2023/07/01 12:02:06;;;;;;;;;;;22.60;99.30;;;;;;5097841;28;20306;-62
2023/07/01 12:04:33;;;;;;;;;;;22.70;99.90;;;;;;5098230;28;19954;-62
2023/07/01 12:07:11;;;;;;;;;;;22.60;99.90;;;;;;5098291;28;20347;-62
2023/07/01 12:09:44;;;;;;;;;;;22.80;99.90;;;;;;5097936;28;20287;-62
2023/07/01 12:12:30;;;;;;;;;;;22.70;99.90;;;;;;5098331;28;19999;-63
2023/07/01 12:15:06;;;;;;;;;;;22.70;99.90;;;;;;5090467;28;20290;-63
2023/07/01 12:17:31;;;;;;;;;;;22.90;99.90;;;;;;5097977;28;20364;-63
2023/07/01 12:20:00;;;;;;;;;;;23.00;99.90;;;;;;5098018;28;20065;-63
2023/07/01 12:22:27;;;;;;;;;;;22.80;96.70;;;;;;5097923;28;19908;-63
2023/07/01 12:24:57;;;;;;;;;;;22.90;99.90;;;;;;5097834;28;20406;-63
2023/07/01 12:27:23;;;;;;;;;;;23.40;99.90;;;;;;5097763;28;19909;-63
2023/07/01 12:29:48;;;;;;;;;;;23.70;99.40;;;;;;5097999;28;19918;-63
2023/07/01 12:32:14;;;;;;;;;;;23.60;97.20;;;;;;5097929;28;19913;-63
2023/07/01 12:34:40;;;;;;;;;;;23.50;99.90;;;;;;5098071;28;19908;-63
2023/07/01 12:37:06;;;;;;;;;;;23.20;98.80;;;;;;5097929;28;20352;-63
2023/07/01 12:39:32;;;;;;;;;;;23.10;99.90;;;;;;5097511;28;20386;-62
2023/07/01 12:41:59;;;;;;;;;;;22.90;98.20;;;;;;5097302;28;19920;-63
2023/07/01 12:44:25;;;;;;;;;;;22.90;98.00;;;;;;5097443;28;20004;-63
2023/07/01 12:46:51;;;;;;;;;;;23.10;99.60;;;;;;5097634;28;19952;-63
2023/07/01 12:49:16;;;;;;;;;;;23.50;98.50;;;;;;5097841;28;19912;-63
2023/07/01 12:51:43;;;;;;;;;;;23.60;99.90;;;;;;5097540;28;19908;-63
2023/07/01 12:54:09;;;;;;;;;;;23.70;99.00;;;;;;5096594;28;20003;-63
2023/07/01 12:56:34;;;;;;;;;;;24.00;98.20;;;;;;5097328;28;19959;-63
2023/07/01 12:59:00;;;;;;;;;;;24.00;95.70;;;;;;5096370;28;19915;-63
2023/07/01 13:01:26;;;;;;;;;;;24.00;97.50;;;;;;5097345;28;19962;-63
2023/07/01 13:03:52;;;;;;;;;;;24.10;98.60;;;;;;5097433;28;19912;-63
2023/07/01 13:06:21;;;;;;;;;;;24.40;99.90;;;;;;5097755;28;19977;-63
2023/07/01 13:08:47;;;;;;;;;;;24.30;99.30;;;;;;5097298;28;19908;-63
2023/07/01 13:11:16;;;;;;;;;;;24.50;99.90;;;;;;5096216;28;19914;-63
2023/07/01 13:13:42;;;;;;;;;;;24.70;99.90;;;;;;5100936;28;19991;-63
2023/07/01 13:16:26;;;;;;;;;;;24.60;94.80;;;;;;5100889;28;19928;-63
2023/07/01 13:18:52;;;;;;;;;;;24.80;95.70;;;;;;5099591;28;19908;-63
2023/07/01 13:21:17;;;;;;;;;;;24.40;92.30;;;;;;5100837;28;19919;-63
2023/07/01 13:23:43;;;;;;;;;;;24.10;99.20;;;;;;5100710;28;19986;-63
2023/07/01 13:26:10;;;;;;;;;;;24.10;97.00;;;;;;5100630;28;19930;-63
2023/07/01 13:28:36;;;;;;;;;;;24.20;96.70;;;;;;5100673;28;20359;-63
2023/07/01 13:31:02;;;;;;;;;;;24.60;97.10;;;;;;5100529;28;19908;-63
2023/07/01 13:33:29;;;;;;;;;;;24.80;93.60;;;;;;5100332;28;19916;-63
2023/07/01 13:35:55;;;;;;;;;;;24.70;96.50;;;;;;5100722;28;20011;-63
2023/07/01 13:38:21;;;;;;;;;;;24.50;94.30;;;;;;5101097;28;19955;-63
2023/07/01 13:40:47;;;;;;;;;;;24.30;97.60;;;;;;5100857;28;19920;-63
2023/07/01 13:43:17;;;;;;;;;;;24.30;96.90;;;;;;5100592;28;19908;-63
2023/07/01 13:45:44;;;;;;;;;;;24.50;94.10;;;;;;5100766;28;19908;-63
2023/07/01 13:48:12;;;;;;;;;;;24.30;97.20;;;;;;5100046;28;19908;-63
2023/07/01 13:50:38;;;;;;;;;;;24.10;95.50;;;;;;5100170;28;20364;-63
2023/07/01 13:53:05;;;;;;;;;;;24.00;97.80;;;;;;5100130;28;19934;-63
2023/07/01 13:55:31;;;;;;;;;;;23.90;97.60;;;;;;5099249;28;20323;-63
2023/07/01 13:57:57;;;;;;;;;;;23.90;97.40;;;;;;5100753;28;19920;-63
2023/07/01 14:00:25;;;;;;;;;;;24.50;98.90;;;;;;5100625;28;19916;-63
2023/07/01 14:02:51;;;;;;;;;;;24.10;97.50;;;;;;5100732;28;19915;-63
2023/07/01 14:05:21;;;;;;;;;;;23.80;97.90;;;;;;5100199;28;19908;-63
2023/07/01 14:07:47;;;;;;;;;;;24.00;98.80;;;;;;5100201;28;19909;-63
2023/07/01 14:10:26;;;;;;;;;;;24.00;98.20;;;;;;5100057;28;19908;-63
2023/07/01 14:12:52;;;;;;;;;;;23.80;97.30;;;;;;5100129;28;19999;-63
2023/07/01 14:15:25;;;;;;;;;;;23.70;98.40;;;;;;5100010;28;19943;-63